createdAt,value
2023-02-05T00:00:34.041Z,5.50
2023-02-05T00:03:00.646Z,5.78
2023-02-05T00:05:27.235Z,6.70
2023-02-05T00:07:53.913Z,5.27
2023-02-05T00:10:20.468Z,5.07
2023-02-05T00:12:47.165Z,4.83
2023-02-05T00:15:13.701Z,4.87
2023-02-05T00:17:40.270Z,4.90
2023-02-05T00:20:07.331Z,5.07
2023-02-05T00:22:33.873Z,5.73
2023-02-05T00:25:00.475Z,4.90
2023-02-05T00:27:27.084Z,3.87
2023-02-05T00:29:53.666Z,6.03
2023-02-05T00:32:20.257Z,6.40
2023-02-05T00:34:46.853Z,6.30
2023-02-05T00:37:13.429Z,6.87
2023-02-05T00:39:40.174Z,5.67
2023-02-05T00:42:06.813Z,6.47
2023-02-05T00:44:33.534Z,5.47
2023-02-05T00:47:00.107Z,7.93
2023-02-05T00:49:26.775Z,6.87
2023-02-05T00:51:53.344Z,6.00
2023-02-05T00:54:19.927Z,3.30
2023-02-05T00:56:46.489Z,5.87
2023-02-05T00:59:13.073Z,7.10
2023-02-05T01:01:39.819Z,5.03
2023-02-05T01:04:06.484Z,4.57
2023-02-05T01:06:34.313Z,6.57
2023-02-05T01:09:00.909Z,5.77
2023-02-05T01:11:27.499Z,5.17
2023-02-05T01:13:54.100Z,5.13
2023-02-05T01:16:20.774Z,5.87
2023-02-05T01:18:47.396Z,3.80
2023-02-05T01:21:13.927Z,5.10
2023-02-05T01:23:40.492Z,5.23
2023-02-05T01:26:07.250Z,5.23
2023-02-05T01:28:33.845Z,3.70
2023-02-05T01:31:00.582Z,12.07
2023-02-05T01:33:27.326Z,4.93
2023-02-05T01:35:53.916Z,4.83
2023-02-05T01:38:20.474Z,6.00
2023-02-05T01:40:47.040Z,4.77
2023-02-05T01:43:16.199Z,7.37
2023-02-05T01:45:54.824Z,4.43
2023-02-05T01:48:25.463Z,3.77
2023-02-05T01:50:56.183Z,5.60
2023-02-05T01:53:30.792Z,5.77
2023-02-05T01:56:00.461Z,5.27
2023-02-05T01:58:30.979Z,4.77
2023-02-05T02:00:57.837Z,4.83
2023-02-05T02:03:28.015Z,4.43
2023-02-05T02:05:55.630Z,6.13
2023-02-05T02:08:22.372Z,3.97
2023-02-05T02:10:50.465Z,3.20
2023-02-05T02:13:18.851Z,5.50
2023-02-05T02:15:45.485Z,3.80
2023-02-05T02:18:27.224Z,4.83
2023-02-05T02:21:19.361Z,3.60
2023-02-05T02:24:10.628Z,4.07
2023-02-05T02:27:14.330Z,5.17
2023-02-05T02:30:06.414Z,4.37
2023-02-05T02:32:36.048Z,5.23
2023-02-05T02:35:27.833Z,5.40
2023-02-05T02:38:10.008Z,4.43
2023-02-05T02:40:41.145Z,3.87
2023-02-05T02:43:11.802Z,3.90
2023-02-05T02:45:43.684Z,4.40
2023-02-05T02:48:10.729Z,4.53
2023-02-05T02:50:41.744Z,5.37
2023-02-05T02:53:21.157Z,3.60
2023-02-05T02:55:49.214Z,5.03
2023-02-05T02:58:21.203Z,4.17
2023-02-05T03:00:48.269Z,4.43
2023-02-05T03:03:17.842Z,5.87
2023-02-05T03:05:46.758Z,4.70
2023-02-05T03:08:31.107Z,4.43
2023-02-05T03:11:09.186Z,4.83
2023-02-05T03:13:35.980Z,5.03
2023-02-05T03:16:02.703Z,6.60
2023-02-05T03:18:29.705Z,4.67
2023-02-05T03:20:59.003Z,6.57
2023-02-05T03:23:27.399Z,7.67
2023-02-05T03:25:54.049Z,6.77
2023-02-05T03:28:20.910Z,5.27
2023-02-05T03:30:53.288Z,5.13
2023-02-05T03:33:35.240Z,8.30
2023-02-05T03:36:17.631Z,9.07
2023-02-05T03:39:21.542Z,2.70
2023-02-05T03:41:56.457Z,6.60
2023-02-05T03:44:39.961Z,8.00
2023-02-05T03:47:20.572Z,6.60
2023-02-05T03:50:09.172Z,5.57
2023-02-05T03:52:38.480Z,6.83
2023-02-05T03:55:18.831Z,7.40
2023-02-05T03:57:59.508Z,4.70
2023-02-05T04:00:27.115Z,5.00
2023-02-05T04:02:53.948Z,5.97
2023-02-05T04:05:24.410Z,4.57
2023-02-05T04:07:51.565Z,4.20
2023-02-05T04:10:18.967Z,5.10
2023-02-05T04:12:45.757Z,4.07
2023-02-05T04:15:12.792Z,5.30
2023-02-05T04:17:39.652Z,5.20
2023-02-05T04:20:07.024Z,4.60
2023-02-05T04:22:33.958Z,6.87
2023-02-05T04:25:00.570Z,5.83
2023-02-05T04:27:27.147Z,5.27
2023-02-05T04:29:53.775Z,5.90
2023-02-05T04:32:20.350Z,7.03
2023-02-05T04:34:46.960Z,4.63
2023-02-05T04:37:13.562Z,2.93
2023-02-05T04:39:40.116Z,2.70
2023-02-05T04:42:06.708Z,5.17
2023-02-05T04:44:33.308Z,2.77
2023-02-05T04:46:59.953Z,3.20
2023-02-05T04:49:34.641Z,2.71
2023-02-05T04:52:03.915Z,3.07
2023-02-05T04:54:31.689Z,4.13
2023-02-05T04:56:58.358Z,4.23
2023-02-05T04:59:24.958Z,4.23
2023-02-05T05:01:51.558Z,4.60
2023-02-05T05:04:18.161Z,3.90
2023-02-05T05:06:44.765Z,4.27
2023-02-05T05:09:11.343Z,3.37
2023-02-05T05:11:37.963Z,3.27
2023-02-05T05:14:04.760Z,3.50
2023-02-05T05:16:31.336Z,3.47
2023-02-05T05:18:57.889Z,2.70
2023-02-05T05:21:24.693Z,3.33
2023-02-05T05:23:51.247Z,3.77
2023-02-05T05:26:17.835Z,4.93
2023-02-05T05:28:44.447Z,7.53
2023-02-05T05:31:20.033Z,3.83
2023-02-05T05:33:46.854Z,2.67
2023-02-05T05:36:13.745Z,3.13
2023-02-05T05:38:40.725Z,3.47
2023-02-05T05:41:25.772Z,2.27
2023-02-05T05:43:54.363Z,3.30
2023-02-05T05:46:25.762Z,3.60
2023-02-05T05:48:54.620Z,2.00
2023-02-05T05:51:22.230Z,3.90
2023-02-05T05:53:49.245Z,1.93
2023-02-05T05:56:16.970Z,1.93
2023-02-05T05:58:43.788Z,3.80
2023-02-05T06:01:12.203Z,2.60
2023-02-05T06:03:38.792Z,3.07
2023-02-05T06:06:07.297Z,1.93
2023-02-05T06:08:34.332Z,1.97
2023-02-05T06:11:00.927Z,1.30
2023-02-05T06:13:27.649Z,2.47
2023-02-05T06:15:54.953Z,3.30
2023-02-05T06:18:23.680Z,3.70
2023-02-05T06:20:50.795Z,5.43
2023-02-05T06:23:17.771Z,5.40
2023-02-05T06:25:44.508Z,5.50
2023-02-05T06:28:11.232Z,13.00
2023-02-05T06:30:37.989Z,4.77
2023-02-05T06:33:05.438Z,4.03
2023-02-05T06:35:32.439Z,3.33
2023-02-05T06:37:59.182Z,3.37
2023-02-05T06:40:28.082Z,4.43
2023-02-05T06:42:54.996Z,4.10
2023-02-05T06:45:22.059Z,3.03
2023-02-05T06:47:49.005Z,2.03
2023-02-05T06:50:15.817Z,4.33
2023-02-05T06:52:42.424Z,4.53
2023-02-05T06:55:09.301Z,3.60
2023-02-05T06:57:36.057Z,6.73
2023-02-05T07:00:04.004Z,6.13
2023-02-05T07:02:30.663Z,4.33
2023-02-05T07:04:57.218Z,8.17
2023-02-05T07:07:23.848Z,3.77
2023-02-05T07:09:50.493Z,4.60
2023-02-05T07:12:17.080Z,4.43
2023-02-05T07:14:43.720Z,2.93
2023-02-05T07:17:10.350Z,4.60
2023-02-05T07:19:37.570Z,6.80
2023-02-05T07:22:05.207Z,4.23
2023-02-05T07:24:31.980Z,3.90
2023-02-05T07:26:58.607Z,4.17
2023-02-05T07:29:25.486Z,5.43
2023-02-05T07:31:52.547Z,3.80
2023-02-05T07:34:19.616Z,3.77
2023-02-05T07:36:46.202Z,2.57
2023-02-05T07:39:12.790Z,2.20
2023-02-05T07:41:39.376Z,3.07
2023-02-05T07:44:05.942Z,2.70
2023-02-05T07:46:32.788Z,1.50
2023-02-05T07:48:59.408Z,2.70
2023-02-05T07:51:26.762Z,1.90
2023-02-05T07:53:53.611Z,2.03
2023-02-05T07:56:25.740Z,3.13
2023-02-05T07:58:52.402Z,1.83
2023-02-05T08:01:19.127Z,1.90
2023-02-05T08:03:45.783Z,4.00
2023-02-05T08:06:15.290Z,2.50
2023-02-05T08:08:42.188Z,2.80
2023-02-05T08:11:13.435Z,2.60
2023-02-05T08:13:40.031Z,1.37
2023-02-05T08:16:07.620Z,1.57
2023-02-05T08:18:34.456Z,1.57
2023-02-05T08:21:01.444Z,2.30
2023-02-05T08:23:28.131Z,1.73
2023-02-05T08:25:56.031Z,2.43
2023-02-05T08:28:23.842Z,4.00
2023-02-05T08:30:50.675Z,3.47
2023-02-05T08:33:17.599Z,2.50
2023-02-05T08:35:44.213Z,3.70
2023-02-05T08:38:10.835Z,2.50
2023-02-05T08:40:37.416Z,2.73
2023-02-05T08:43:04.064Z,3.07
2023-02-05T08:45:31.379Z,1.93
2023-02-05T08:47:58.072Z,1.93
2023-02-05T08:50:24.702Z,3.73
2023-02-05T08:52:51.437Z,2.50
2023-02-05T08:55:18.364Z,3.70
2023-02-05T08:57:45.232Z,3.47
2023-02-05T09:00:13.080Z,3.20
2023-02-05T09:02:41.457Z,2.67
2023-02-05T09:05:09.640Z,2.03
2023-02-05T09:07:38.427Z,2.00
2023-02-05T09:10:09.720Z,2.67
2023-02-05T09:12:36.495Z,2.80
2023-02-05T09:15:03.381Z,2.37
2023-02-05T09:17:30.033Z,3.07
2023-02-05T09:19:56.797Z,5.20
2023-02-05T09:22:23.437Z,4.17
2023-02-05T09:24:50.082Z,3.67
2023-02-05T09:27:16.710Z,2.10
2023-02-05T09:29:43.362Z,1.97
2023-02-05T09:32:10.094Z,2.47
2023-02-05T09:34:36.762Z,3.10
2023-02-05T09:37:03.398Z,3.47
2023-02-05T09:40:12.349Z,2.00
2023-02-05T09:42:27.822Z,3.10
2023-02-05T09:45:09.897Z,2.23
2023-02-05T09:47:51.753Z,2.10
2023-02-05T09:50:30.170Z,2.60
2023-02-05T09:53:02.719Z,1.83
2023-02-05T09:55:31.987Z,2.83
2023-02-05T09:58:01.170Z,4.20
2023-02-05T10:00:34.368Z,3.30
2023-02-05T10:03:15.966Z,2.53
2023-02-05T10:06:23.977Z,3.77
2023-02-05T10:09:16.105Z,2.73
2023-02-05T10:11:59.303Z,2.67
2023-02-05T10:14:43.998Z,3.53
2023-02-05T10:17:12.223Z,4.57
2023-02-05T10:20:00.447Z,3.97
2023-02-05T10:23:04.215Z,3.43
2023-02-05T10:25:55.866Z,2.30
2023-02-05T10:28:31.439Z,2.23
2023-02-05T10:31:25.360Z,2.43
2023-02-05T10:33:56.868Z,1.90
2023-02-05T10:36:25.845Z,2.70
2023-02-05T10:38:56.872Z,2.33
2023-02-05T10:41:28.691Z,2.57
2023-02-05T10:44:01.816Z,3.40
2023-02-05T10:46:33.280Z,2.80
2023-02-05T10:49:12.268Z,2.63
2023-02-05T10:51:42.648Z,2.60
2023-02-05T10:54:26.346Z,2.07
2023-02-05T10:56:53.092Z,2.37
2023-02-05T10:59:27.036Z,1.63
2023-02-05T11:01:56.407Z,1.37
2023-02-05T11:04:47.535Z,2.43
2023-02-05T11:07:25.394Z,2.80
2023-02-05T11:09:52.313Z,2.87
2023-02-05T11:12:39.292Z,6.27
2023-02-05T11:15:06.028Z,2.43
2023-02-05T11:17:37.188Z,4.60
2023-02-05T11:20:23.008Z,2.60
2023-02-05T11:22:49.994Z,3.07
2023-02-05T11:25:17.932Z,3.27
2023-02-05T11:27:56.952Z,3.23
2023-02-05T11:33:24.619Z,2.10
2023-02-05T11:36:01.465Z,2.10
2023-02-05T11:38:31.265Z,2.70
2023-02-05T11:41:00.356Z,4.17
2023-02-05T11:43:30.824Z,2.20
2023-02-05T11:45:59.267Z,2.63
2023-02-05T11:48:42.020Z,1.67
2023-02-05T11:51:11.845Z,1.63
2023-02-05T11:53:46.867Z,3.20
2023-02-05T11:56:21.980Z,1.70
2023-02-05T11:59:09.964Z,2.47
2023-02-05T12:01:36.594Z,2.77
2023-02-05T12:04:12.356Z,2.30
2023-02-05T12:06:42.083Z,1.70
2023-02-05T12:09:11.349Z,1.73
2023-02-05T12:12:03.817Z,2.20
2023-02-05T12:14:33.306Z,2.10
2023-02-05T12:17:13.020Z,2.83
2023-02-05T12:19:48.652Z,2.90
2023-02-05T12:22:58.061Z,2.60
2023-02-05T12:25:30.172Z,1.73
2023-02-05T12:28:05.896Z,1.30
2023-02-05T12:30:38.740Z,1.27
2023-02-05T12:33:10.730Z,1.93
2023-02-05T12:36:03.882Z,1.50
2023-02-05T12:38:39.659Z,2.57
2023-02-05T12:41:25.022Z,2.50
2023-02-05T12:43:56.534Z,1.83
2023-02-05T12:46:26.158Z,2.20
2023-02-05T12:49:05.095Z,1.83
2023-02-05T12:51:50.104Z,3.13
2023-02-05T12:54:31.875Z,4.90
2023-02-05T12:57:02.450Z,4.13
2023-02-05T12:59:34.999Z,2.10
2023-02-05T13:02:22.605Z,3.50
2023-02-05T13:05:03.213Z,4.20
2023-02-05T13:07:33.927Z,4.87
2023-02-05T13:10:06.708Z,5.53
2023-02-05T13:12:36.827Z,2.47
2023-02-05T13:15:22.655Z,2.03
2023-02-05T13:18:02.841Z,4.73
2023-02-05T13:20:51.916Z,2.40
2023-02-05T13:23:37.129Z,2.80
2023-02-05T13:26:24.306Z,2.03
2023-02-05T13:28:55.125Z,2.40
2023-02-05T13:31:31.919Z,3.77
2023-02-05T13:34:04.987Z,1.70
2023-02-05T13:36:43.694Z,1.47
2023-02-05T13:39:33.757Z,2.97
2023-02-05T13:42:15.103Z,2.37
2023-02-05T13:45:19.370Z,2.77
2023-02-05T13:48:08.204Z,1.63
2023-02-05T13:50:51.127Z,1.70
2023-02-05T13:53:20.539Z,2.50
2023-02-05T13:55:53.922Z,3.17
2023-02-05T13:58:34.613Z,3.10
2023-02-05T14:01:38.233Z,3.70
2023-02-05T14:04:08.066Z,2.87
2023-02-05T14:06:39.460Z,3.97
2023-02-05T14:09:17.637Z,2.20
2023-02-05T14:11:56.988Z,2.67
2023-02-05T14:14:25.864Z,1.57
2023-02-05T14:16:53.917Z,2.03
2023-02-05T14:19:25.657Z,3.97
2023-02-05T14:22:09.018Z,4.50
2023-02-05T14:24:43.730Z,1.83
2023-02-05T14:27:29.204Z,4.73
2023-02-05T14:29:56.865Z,2.10
2023-02-05T14:32:26.517Z,1.67
2023-02-05T14:35:02.042Z,3.33
2023-02-05T14:37:35.709Z,4.63
2023-02-05T14:40:23.528Z,4.03
2023-02-05T14:42:57.078Z,4.27
2023-02-05T14:45:29.139Z,5.37
2023-02-05T14:47:56.581Z,6.30
2023-02-05T14:50:30.225Z,3.97
2023-02-05T14:52:59.799Z,4.77
2023-02-05T14:55:31.524Z,5.70
2023-02-05T14:58:04.337Z,5.77
2023-02-05T15:00:44.442Z,4.00
2023-02-05T15:03:17.786Z,5.10
2023-02-05T15:05:44.395Z,4.10
2023-02-05T15:08:11.073Z,5.83
2023-02-05T15:10:44.154Z,9.33
2023-02-05T15:13:18.933Z,6.20
2023-02-05T15:16:14.687Z,4.17
2023-02-05T15:18:48.128Z,3.27
2023-02-05T15:21:20.582Z,4.83
2023-02-05T15:24:00.695Z,3.50
2023-02-05T15:26:39.932Z,1.57
2023-02-05T15:29:12.702Z,5.40
2023-02-05T15:31:49.082Z,4.57
2023-02-05T15:34:28.621Z,3.83
2023-02-05T15:37:08.546Z,6.07
2023-02-05T15:40:03.722Z,6.50
2023-02-05T15:42:37.063Z,5.67
2023-02-05T15:45:23.826Z,2.83
2023-02-05T15:48:05.785Z,4.73
2023-02-05T15:50:34.139Z,3.27
2023-02-05T15:53:01.190Z,4.03
2023-02-05T15:55:29.122Z,5.03
2023-02-05T15:58:02.184Z,6.53
2023-02-05T16:00:30.555Z,8.10
2023-02-05T16:02:59.318Z,5.97
2023-02-05T16:05:27.592Z,5.23
2023-02-05T16:08:02.087Z,4.40
2023-02-05T16:10:30.419Z,3.50
2023-02-05T16:13:17.897Z,3.37
2023-02-05T16:15:54.749Z,4.17
2023-02-05T16:18:32.796Z,3.60
2023-02-05T16:21:04.715Z,4.43
2023-02-05T16:23:35.520Z,5.00
2023-02-05T16:26:12.515Z,5.13
2023-02-05T16:29:00.697Z,27.23
2023-02-05T16:31:28.610Z,14.60
2023-02-05T16:34:05.336Z,5.60
2023-02-05T16:36:35.465Z,8.63
2023-02-05T16:39:07.009Z,10.57
2023-02-05T16:41:36.650Z,7.53
2023-02-05T16:44:06.227Z,8.60
2023-02-05T16:46:35.330Z,9.33
2023-02-05T16:49:27.988Z,8.13
2023-02-05T16:51:56.349Z,12.47
2023-02-05T16:54:32.770Z,9.37
2023-02-05T16:57:10.258Z,9.37
2023-02-05T16:59:54.352Z,11.23
2023-02-05T17:02:27.674Z,12.23
2023-02-05T17:04:58.764Z,7.90
2023-02-05T17:07:25.460Z,9.97
2023-02-05T17:09:52.543Z,8.47
2023-02-05T17:12:22.216Z,6.83
2023-02-05T17:14:58.729Z,8.47
2023-02-05T17:17:26.703Z,7.77
2023-02-05T17:20:18.094Z,7.97
2023-02-05T17:23:05.843Z,8.30
2023-02-05T17:25:37.287Z,6.40
2023-02-05T17:28:05.652Z,6.20
2023-02-05T17:30:33.146Z,6.63
2023-02-05T17:33:00.010Z,8.57
2023-02-05T17:35:26.721Z,8.43
2023-02-05T17:37:53.919Z,12.25
2023-02-05T17:40:20.773Z,9.93
2023-02-05T17:42:47.852Z,10.27
2023-02-05T17:45:19.606Z,5.60
2023-02-05T17:47:46.501Z,8.07
2023-02-05T17:50:13.575Z,4.97
2023-02-05T17:52:40.270Z,9.50
2023-02-05T17:55:09.658Z,11.13
2023-02-05T17:57:36.836Z,7.83
2023-02-05T18:00:05.037Z,11.57
2023-02-05T18:02:34.235Z,9.70
2023-02-05T18:05:00.814Z,6.83
2023-02-05T18:07:37.045Z,10.73
2023-02-05T18:10:04.494Z,10.23
2023-02-05T18:12:31.447Z,16.03
2023-02-05T18:14:58.100Z,13.77
2023-02-05T18:17:24.950Z,34.27
2023-02-05T18:19:51.606Z,6.73
2023-02-05T18:22:18.280Z,11.30
2023-02-05T18:24:44.892Z,22.13
2023-02-05T18:27:12.190Z,22.87
2023-02-05T18:29:39.365Z,11.67
2023-02-05T18:32:06.798Z,11.67
2023-02-05T18:34:33.545Z,10.67
2023-02-05T18:37:00.160Z,10.50
2023-02-05T18:39:28.595Z,8.77
2023-02-05T18:41:56.307Z,12.10
2023-02-05T18:44:23.266Z,10.67
2023-02-05T18:46:50.034Z,8.67
2023-02-05T18:49:16.589Z,8.60
2023-02-05T18:51:43.741Z,10.35
2023-02-05T18:54:10.412Z,13.43
2023-02-05T18:56:37.330Z,10.40
2023-02-05T18:59:06.416Z,11.33
2023-02-05T19:01:38.516Z,11.43
2023-02-05T19:04:11.417Z,11.63
2023-02-05T19:06:41.199Z,7.40
2023-02-05T19:09:07.800Z,10.50
2023-02-05T19:11:40.737Z,9.07
2023-02-05T19:14:10.129Z,4.87
2023-02-05T19:16:37.107Z,6.30
2023-02-05T19:19:04.313Z,6.60
2023-02-05T19:21:32.594Z,6.63
2023-02-05T19:24:05.421Z,5.20
2023-02-05T19:26:33.714Z,4.43
2023-02-05T19:29:03.100Z,4.97
2023-02-05T19:31:32.480Z,7.33
2023-02-05T19:34:00.203Z,3.63
2023-02-05T19:36:27.836Z,4.10
2023-02-05T19:38:54.489Z,2.23
2023-02-05T19:41:23.721Z,3.43
2023-02-05T19:44:02.340Z,3.03
2023-02-05T19:46:31.623Z,2.40
2023-02-05T19:49:04.198Z,4.40
2023-02-05T19:51:31.148Z,2.57
2023-02-05T19:53:59.045Z,2.67
2023-02-05T19:56:26.207Z,3.93
2023-02-05T19:58:56.071Z,3.50
2023-02-05T20:01:33.366Z,3.20
2023-02-05T20:04:11.890Z,2.97
2023-02-05T20:06:40.472Z,4.33
2023-02-05T20:09:10.714Z,4.20
2023-02-05T20:11:38.809Z,2.97
2023-02-05T20:14:06.162Z,3.60
2023-02-05T20:16:32.916Z,3.33
2023-02-05T20:19:00.227Z,4.10
2023-02-05T20:21:28.007Z,3.90
2023-02-05T20:23:55.780Z,3.57
2023-02-05T20:26:23.014Z,5.10
2023-02-05T20:29:11.402Z,5.17
2023-02-05T20:31:43.541Z,7.03
2023-02-05T20:34:19.034Z,4.73
2023-02-05T20:36:48.158Z,3.73
2023-02-05T20:39:17.205Z,4.67
2023-02-05T20:41:48.589Z,5.10
2023-02-05T20:44:15.852Z,6.93
2023-02-05T20:46:42.844Z,12.07
2023-02-05T20:49:09.665Z,10.17
2023-02-05T20:51:36.662Z,7.53
2023-02-05T20:54:04.074Z,8.80
2023-02-05T20:56:31.567Z,7.87
2023-02-05T20:58:59.826Z,11.30
2023-02-05T21:01:27.211Z,19.87
2023-02-05T21:03:57.750Z,13.03
2023-02-05T21:06:25.417Z,6.40
2023-02-05T21:08:52.954Z,14.00
2023-02-05T21:11:20.646Z,18.00
2023-02-05T21:13:48.512Z,12.40
2023-02-05T21:16:16.710Z,8.90
2023-02-05T21:18:47.429Z,8.00
2023-02-05T21:21:23.034Z,7.00
2023-02-05T21:23:54.336Z,6.67
2023-02-05T21:26:31.161Z,6.87
2023-02-05T21:29:00.223Z,6.73
2023-02-05T21:31:35.208Z,8.57
2023-02-05T21:34:03.093Z,14.97
2023-02-05T21:36:30.246Z,11.50
2023-02-05T21:38:57.028Z,11.07
2023-02-05T21:41:24.106Z,13.93
2023-02-05T21:43:55.334Z,12.30
2023-02-05T21:46:23.520Z,18.23
2023-02-05T21:48:51.847Z,15.67
2023-02-05T21:51:20.708Z,13.43
2023-02-05T21:53:47.279Z,10.33
2023-02-05T21:56:16.605Z,12.53
2023-02-05T21:58:43.391Z,24.40
2023-02-05T22:01:26.390Z,32.50
2023-02-05T22:04:02.135Z,17.17
2023-02-05T22:06:31.872Z,18.20
2023-02-05T22:08:59.517Z,10.43
2023-02-05T22:11:26.940Z,11.23
2023-02-05T22:13:55.085Z,12.23
2023-02-05T22:16:27.471Z,8.93
2023-02-05T22:18:54.856Z,6.90
2023-02-05T22:21:29.967Z,6.00
2023-02-05T22:23:58.388Z,4.90
2023-02-05T22:26:31.169Z,7.27
2023-02-05T22:28:59.355Z,7.67
2023-02-05T22:31:27.745Z,7.60
2023-02-05T22:33:54.417Z,6.23
2023-02-05T22:36:23.840Z,5.23
2023-02-05T22:38:51.376Z,5.87
2023-02-05T22:41:20.723Z,8.87
2023-02-05T22:43:47.277Z,4.60
2023-02-05T22:46:16.354Z,5.23
2023-02-05T22:48:45.028Z,5.47
2023-02-05T22:51:17.265Z,5.07
2023-02-05T22:53:43.898Z,5.53
2023-02-05T22:56:11.937Z,4.63
2023-02-05T22:58:40.660Z,4.43
2023-02-05T23:01:12.649Z,6.27
2023-02-05T23:03:40.285Z,5.03
2023-02-05T23:06:10.103Z,4.07
2023-02-05T23:08:37.986Z,7.43
2023-02-05T23:11:06.594Z,5.10
2023-02-05T23:13:33.718Z,6.00
2023-02-05T23:16:28.317Z,6.83
2023-02-05T23:19:05.950Z,6.83
2023-02-05T23:21:34.454Z,7.87
2023-02-05T23:24:01.174Z,9.87
2023-02-05T23:26:31.284Z,11.90
2023-02-05T23:28:58.815Z,10.93
2023-02-05T23:31:26.724Z,5.17
2023-02-05T23:33:53.881Z,8.33
2023-02-05T23:36:20.538Z,8.43
2023-02-05T23:38:47.429Z,8.07
2023-02-05T23:41:14.174Z,7.43
2023-02-05T23:43:40.809Z,5.53
2023-02-05T23:46:08.687Z,5.83
2023-02-05T23:48:35.592Z,7.70
2023-02-05T23:51:02.327Z,7.60
2023-02-05T23:53:29.065Z,7.47
2023-02-05T23:55:55.746Z,5.27
2023-02-05T23:58:25.914Z,5.40
